createdAt,value
2023-11-30T00:00:56.129Z,653.00
2023-11-30T00:01:56.175Z,651.00
2023-11-30T00:02:56.256Z,645.00
2023-11-30T00:03:56.387Z,645.00
2023-11-30T00:04:56.281Z,647.00
2023-11-30T00:05:56.373Z,643.00
2023-11-30T00:06:56.375Z,645.00
2023-11-30T00:07:56.428Z,648.00
2023-11-30T00:08:56.499Z,649.00
2023-11-30T00:09:56.540Z,637.00
2023-11-30T00:10:56.614Z,638.00
2023-11-30T00:11:56.655Z,644.00
2023-11-30T00:12:56.667Z,652.00
2023-11-30T00:13:56.756Z,637.00
2023-11-30T00:14:56.819Z,637.00
2023-11-30T00:15:56.839Z,639.00
2023-11-30T00:16:57.011Z,640.00
2023-11-30T00:17:57.049Z,631.00
2023-11-30T00:18:57.074Z,643.00
2023-11-30T00:19:57.061Z,647.00
2023-11-30T00:20:57.129Z,637.00
2023-11-30T00:21:57.130Z,646.00
2023-11-30T00:22:57.170Z,649.00
2023-11-30T00:23:57.294Z,642.00
2023-11-30T00:24:57.311Z,640.00
2023-11-30T00:25:57.310Z,638.00
2023-11-30T00:26:58.272Z,640.00
2023-11-30T00:27:57.425Z,640.00
2023-11-30T00:28:57.491Z,635.00
2023-11-30T00:29:57.487Z,636.00
2023-11-30T00:30:57.577Z,639.00
2023-11-30T00:31:57.595Z,635.00
2023-11-30T00:32:57.702Z,636.00
2023-11-30T00:33:57.686Z,633.00
2023-11-30T00:34:57.704Z,634.00
2023-11-30T00:35:57.821Z,635.00
2023-11-30T00:36:58.260Z,630.00
2023-11-30T00:37:57.823Z,627.00
2023-11-30T00:38:57.881Z,633.00
2023-11-30T00:39:57.892Z,640.00
2023-11-30T00:40:57.957Z,628.00
2023-11-30T00:41:58.176Z,633.00
2023-11-30T00:42:58.058Z,632.00
2023-11-30T00:43:58.052Z,624.00
2023-11-30T00:44:58.142Z,642.00
2023-11-30T00:46:06.884Z,631.00
2023-11-30T00:46:59.104Z,631.00
2023-11-30T00:47:58.214Z,632.00
2023-11-30T00:48:58.115Z,630.00
2023-11-30T00:49:58.121Z,631.00
2023-11-30T00:50:58.133Z,633.00
2023-11-30T00:51:58.119Z,636.00
2023-11-30T00:52:58.114Z,626.00
2023-11-30T00:53:58.178Z,631.00
2023-11-30T00:54:58.134Z,634.00
2023-11-30T00:55:58.126Z,631.00
2023-11-30T00:56:58.157Z,623.00
2023-11-30T00:57:58.162Z,627.00
2023-11-30T00:58:58.137Z,629.00
2023-11-30T00:59:58.169Z,624.00
2023-11-30T01:00:58.186Z,625.00
2023-11-30T01:01:58.235Z,627.00
2023-11-30T01:02:58.189Z,627.00
2023-11-30T01:03:58.164Z,622.00
2023-11-30T01:04:58.121Z,630.00
2023-11-30T01:05:58.132Z,624.00
2023-11-30T01:06:58.175Z,619.00
2023-11-30T01:07:58.153Z,621.00
2023-11-30T01:08:58.188Z,623.00
2023-11-30T01:09:58.176Z,626.00
2023-11-30T01:10:58.137Z,625.00
2023-11-30T01:11:58.210Z,627.00
2023-11-30T01:12:58.186Z,629.00
2023-11-30T01:13:58.165Z,627.00
2023-11-30T01:14:58.223Z,631.00
2023-11-30T01:15:58.244Z,627.00
2023-11-30T01:16:58.272Z,626.00
2023-11-30T01:17:58.322Z,620.00
2023-11-30T01:18:58.348Z,622.00
2023-11-30T01:19:58.293Z,623.00
2023-11-30T01:20:58.347Z,625.00
2023-11-30T01:21:58.302Z,633.00
2023-11-30T01:22:58.346Z,631.00
2023-11-30T01:23:58.375Z,641.00
2023-11-30T01:24:58.378Z,643.00
2023-11-30T01:25:58.439Z,644.00
2023-11-30T01:26:58.492Z,636.00
2023-11-30T01:27:58.475Z,631.00
2023-11-30T01:28:58.498Z,632.00
2023-11-30T01:29:58.558Z,625.00
2023-11-30T01:30:58.637Z,620.00
2023-11-30T01:31:58.630Z,643.00
2023-11-30T01:32:58.704Z,628.00
2023-11-30T01:33:58.661Z,633.00
2023-11-30T01:34:58.675Z,636.00
2023-11-30T01:35:58.800Z,639.00
2023-11-30T01:36:58.783Z,640.00
2023-11-30T01:37:58.820Z,644.00
2023-11-30T01:38:58.876Z,641.00
2023-11-30T01:39:58.910Z,645.00
2023-11-30T01:40:58.961Z,646.00
2023-11-30T01:41:59.029Z,642.00
2023-11-30T01:42:59.079Z,639.00
2023-11-30T01:43:59.161Z,639.00
2023-11-30T01:44:59.224Z,630.00
2023-11-30T01:46:03.582Z,628.00
2023-11-30T01:47:00.246Z,628.00
2023-11-30T01:47:59.304Z,629.00
2023-11-30T01:48:59.326Z,625.00
2023-11-30T01:49:59.217Z,635.00
2023-11-30T01:50:59.301Z,635.00
2023-11-30T01:51:59.276Z,633.00
2023-11-30T01:52:59.273Z,624.00
2023-11-30T01:53:59.285Z,632.00
2023-11-30T01:54:59.219Z,636.00
2023-11-30T01:55:59.281Z,633.00
2023-11-30T01:56:59.261Z,637.00
2023-11-30T01:57:59.268Z,632.00
2023-11-30T01:58:59.274Z,640.00
2023-11-30T01:59:59.299Z,635.00
2023-11-30T02:00:59.227Z,633.00
2023-11-30T02:01:59.397Z,636.00
2023-11-30T02:02:59.350Z,632.00
2023-11-30T02:03:59.296Z,636.00
2023-11-30T02:04:59.169Z,635.00
2023-11-30T02:05:59.234Z,636.00
2023-11-30T02:06:59.270Z,635.00
2023-11-30T02:07:59.368Z,640.00
2023-11-30T02:08:59.343Z,647.00
2023-11-30T02:09:59.341Z,642.00
2023-11-30T02:10:59.416Z,641.00
2023-11-30T02:11:59.436Z,647.00
2023-11-30T02:12:59.501Z,642.00
2023-11-30T02:13:59.503Z,640.00
2023-11-30T02:14:59.564Z,638.00
2023-11-30T02:15:59.632Z,648.00
2023-11-30T02:16:59.658Z,649.00
2023-11-30T02:17:59.759Z,649.00
2023-11-30T02:18:59.731Z,648.00
2023-11-30T02:19:59.837Z,652.00
2023-11-30T02:20:59.868Z,643.00
2023-11-30T02:21:59.925Z,641.00
2023-11-30T02:23:00.021Z,642.00
2023-11-30T02:24:00.069Z,649.00
2023-11-30T02:25:00.180Z,643.00
2023-11-30T02:26:00.234Z,651.00
2023-11-30T02:27:00.318Z,648.00
2023-11-30T02:28:00.355Z,650.00
2023-11-30T02:29:00.416Z,652.00
2023-11-30T02:30:00.505Z,646.00
2023-11-30T02:31:00.509Z,648.00
2023-11-30T02:32:00.631Z,651.00
2023-11-30T02:33:00.732Z,647.00
2023-11-30T02:34:00.706Z,645.00
2023-11-30T02:35:00.772Z,640.00
2023-11-30T02:36:00.878Z,649.00
2023-11-30T02:37:00.907Z,644.00
2023-11-30T02:38:00.929Z,640.00
2023-11-30T02:39:01.067Z,644.00
2023-11-30T02:40:01.053Z,650.00
2023-11-30T02:41:01.047Z,638.00
2023-11-30T02:42:01.141Z,640.00
2023-11-30T02:43:01.125Z,639.00
2023-11-30T02:44:01.185Z,642.00
2023-11-30T02:45:01.259Z,635.00
2023-11-30T02:46:01.249Z,651.00
2023-11-30T02:47:01.264Z,633.00
2023-11-30T02:48:01.349Z,640.00
2023-11-30T02:49:01.324Z,642.00
2023-11-30T02:50:01.350Z,647.00
2023-11-30T02:51:01.408Z,647.00
2023-11-30T02:52:01.383Z,646.00
2023-11-30T02:53:01.412Z,641.00
2023-11-30T02:54:01.461Z,637.00
2023-11-30T02:55:01.495Z,637.00
2023-11-30T02:56:01.507Z,646.00
2023-11-30T02:57:01.549Z,633.00
2023-11-30T02:58:01.536Z,634.00
2023-11-30T02:59:01.529Z,630.00
2023-11-30T03:00:01.633Z,633.00
2023-11-30T03:01:01.588Z,634.00
2023-11-30T03:02:01.762Z,630.00
2023-11-30T03:03:01.644Z,632.00
2023-11-30T03:04:01.682Z,633.00
2023-11-30T03:05:01.629Z,628.00
2023-11-30T03:06:01.687Z,637.00
2023-11-30T03:07:01.699Z,635.00
2023-11-30T03:08:01.708Z,637.00
2023-11-30T03:09:01.726Z,627.00
2023-11-30T03:10:01.720Z,637.00
2023-11-30T03:11:01.723Z,631.00
2023-11-30T03:12:01.770Z,631.00
2023-11-30T03:13:01.731Z,629.00
2023-11-30T03:14:01.732Z,625.00
2023-11-30T03:15:01.792Z,629.00
2023-11-30T03:16:01.817Z,627.00
2023-11-30T03:17:01.791Z,633.00
2023-11-30T03:18:01.889Z,630.00
2023-11-30T03:19:13.904Z,626.00
2023-11-30T03:20:02.876Z,626.00
2023-11-30T03:21:01.859Z,626.00
2023-11-30T03:22:01.813Z,627.00
2023-11-30T03:23:01.789Z,631.00
2023-11-30T03:24:01.809Z,632.00
2023-11-30T03:25:01.796Z,629.00
2023-11-30T03:26:01.783Z,632.00
2023-11-30T03:27:01.836Z,630.00
2023-11-30T03:28:01.780Z,629.00
2023-11-30T03:29:01.817Z,629.00
2023-11-30T03:30:01.882Z,629.00
2023-11-30T03:31:01.805Z,629.00
2023-11-30T03:32:01.835Z,631.00
2023-11-30T03:33:01.906Z,630.00
2023-11-30T03:34:01.815Z,630.00
2023-11-30T03:35:01.858Z,627.00
2023-11-30T03:36:01.864Z,629.00
2023-11-30T03:37:01.929Z,628.00
2023-11-30T03:38:01.806Z,632.00
2023-11-30T03:39:01.838Z,629.00
2023-11-30T03:40:01.841Z,627.00
2023-11-30T03:41:01.827Z,630.00
2023-11-30T03:42:01.836Z,627.00
2023-11-30T03:43:01.814Z,633.00
2023-11-30T03:44:01.822Z,632.00
2023-11-30T03:45:01.863Z,630.00
2023-11-30T03:46:01.874Z,631.00
2023-11-30T03:47:01.850Z,629.00
2023-11-30T03:48:01.907Z,629.00
2023-11-30T03:49:01.820Z,630.00
2023-11-30T03:50:01.839Z,626.00
2023-11-30T03:51:01.891Z,629.00
2023-11-30T03:52:01.877Z,630.00
2023-11-30T03:53:01.929Z,628.00
2023-11-30T03:54:01.893Z,629.00
2023-11-30T03:55:01.840Z,630.00
2023-11-30T03:56:01.874Z,631.00
2023-11-30T03:57:01.881Z,627.00
2023-11-30T03:58:02.660Z,629.00
2023-11-30T03:59:01.840Z,627.00
2023-11-30T04:00:01.980Z,627.00
2023-11-30T04:01:01.872Z,627.00
2023-11-30T04:02:01.987Z,627.00
2023-11-30T04:03:01.941Z,632.00
2023-11-30T04:04:01.977Z,630.00
2023-11-30T04:05:01.913Z,629.00
2023-11-30T04:06:01.906Z,627.00
2023-11-30T04:07:01.929Z,632.00
2023-11-30T04:08:01.860Z,628.00
2023-11-30T04:09:01.914Z,632.00
2023-11-30T04:10:01.882Z,632.00
2023-11-30T04:11:01.881Z,633.00
2023-11-30T04:12:01.911Z,627.00
2023-11-30T04:13:01.897Z,630.00
2023-11-30T04:14:01.891Z,629.00
2023-11-30T04:15:01.905Z,631.00
2023-11-30T04:16:01.882Z,631.00
2023-11-30T04:17:04.516Z,630.00
2023-11-30T04:18:01.967Z,630.00
2023-11-30T04:19:01.930Z,631.00
2023-11-30T04:20:01.904Z,630.00
2023-11-30T04:21:01.916Z,631.00
2023-11-30T04:22:01.872Z,627.00
2023-11-30T04:23:01.886Z,631.00
2023-11-30T04:24:01.903Z,630.00
2023-11-30T04:25:01.895Z,629.00
2023-11-30T04:26:01.906Z,632.00
2023-11-30T04:27:01.925Z,633.00
2023-11-30T04:28:01.895Z,628.00
2023-11-30T04:29:01.898Z,625.00
2023-11-30T04:30:01.931Z,632.00
2023-11-30T04:31:01.994Z,631.00
2023-11-30T04:32:01.924Z,631.00
2023-11-30T04:33:02.020Z,628.00
2023-11-30T04:34:01.918Z,631.00
2023-11-30T04:35:01.942Z,631.00
2023-11-30T04:36:01.958Z,630.00
2023-11-30T04:37:01.936Z,631.00
2023-11-30T04:38:01.920Z,632.00
2023-11-30T04:39:01.922Z,631.00
2023-11-30T04:40:01.891Z,632.00
2023-11-30T04:41:01.953Z,628.00
2023-11-30T04:42:01.942Z,625.00
2023-11-30T04:43:01.920Z,629.00
2023-11-30T04:44:01.906Z,634.00
2023-11-30T04:45:09.236Z,600.00
2023-11-30T04:46:09.289Z,600.00
2023-11-30T04:47:09.193Z,600.00
2023-11-30T04:48:09.317Z,600.00
2023-11-30T04:49:09.194Z,600.00
2023-11-30T04:50:09.205Z,600.00
2023-11-30T04:51:09.318Z,600.00
2023-11-30T04:52:09.223Z,600.00
2023-11-30T04:53:09.220Z,603.00
2023-11-30T04:54:09.242Z,605.00
2023-11-30T04:55:09.220Z,605.00
2023-11-30T04:56:09.207Z,602.00
2023-11-30T04:57:09.266Z,602.00
2023-11-30T04:58:09.200Z,605.00
2023-11-30T04:59:09.206Z,600.00
2023-11-30T05:00:09.229Z,600.00
2023-11-30T05:01:09.225Z,602.00
2023-11-30T05:02:09.371Z,603.00
2023-11-30T05:03:09.419Z,604.00
2023-11-30T05:04:09.371Z,604.00
2023-11-30T05:05:09.283Z,606.00
2023-11-30T05:06:09.243Z,601.00
2023-11-30T05:07:09.233Z,606.00
2023-11-30T05:08:09.221Z,605.00
2023-11-30T05:09:09.251Z,606.00
2023-11-30T05:10:09.218Z,609.00
2023-11-30T05:11:09.248Z,604.00
2023-11-30T05:12:09.270Z,602.00
2023-11-30T05:13:09.243Z,604.00
2023-11-30T05:14:09.249Z,606.00
2023-11-30T05:15:09.299Z,605.00
2023-11-30T05:16:09.219Z,604.00
2023-11-30T05:17:09.226Z,603.00
2023-11-30T05:18:09.360Z,605.00
2023-11-30T05:19:09.240Z,603.00
2023-11-30T05:20:09.227Z,609.00
2023-11-30T05:21:09.317Z,600.00
2023-11-30T05:22:10.724Z,603.00
2023-11-30T05:23:09.238Z,600.00
2023-11-30T05:24:09.255Z,601.00
2023-11-30T05:25:09.217Z,606.00
2023-11-30T05:26:09.260Z,602.00
2023-11-30T05:27:09.310Z,604.00
2023-11-30T05:28:09.264Z,603.00
2023-11-30T05:29:09.320Z,602.00
2023-11-30T05:30:09.292Z,604.00
2023-11-30T05:31:09.262Z,604.00
2023-11-30T05:32:09.274Z,604.00
2023-11-30T05:33:09.323Z,602.00
2023-11-30T05:34:09.263Z,604.00
2023-11-30T05:35:09.260Z,602.00
2023-11-30T05:36:09.267Z,603.00
2023-11-30T05:37:09.250Z,604.00
2023-11-30T05:38:09.284Z,604.00
2023-11-30T05:39:09.318Z,610.00
2023-11-30T05:40:09.279Z,603.00
2023-11-30T05:41:09.259Z,606.00
2023-11-30T05:42:09.288Z,606.00
2023-11-30T05:43:09.264Z,603.00
2023-11-30T05:44:09.298Z,605.00
2023-11-30T05:45:09.321Z,612.00
2023-11-30T05:46:09.274Z,606.00
2023-11-30T05:47:09.254Z,611.00
2023-11-30T05:48:09.327Z,607.00
2023-11-30T05:49:09.360Z,610.00
2023-11-30T05:50:09.274Z,611.00
2023-11-30T05:51:09.392Z,619.00
2023-11-30T05:52:09.287Z,607.00
2023-11-30T05:53:09.297Z,608.00
2023-11-30T05:54:09.357Z,616.00
2023-11-30T05:55:09.261Z,608.00
2023-11-30T05:56:09.283Z,616.00
2023-11-30T05:57:09.312Z,615.00
2023-11-30T05:58:09.297Z,616.00
2023-11-30T05:59:09.300Z,616.00
2023-11-30T06:00:09.343Z,604.00
2023-11-30T06:01:31.813Z,613.00
2023-11-30T06:02:09.415Z,614.00
2023-11-30T06:03:09.462Z,614.00
2023-11-30T06:04:09.404Z,614.00
2023-11-30T06:05:09.449Z,612.00
2023-11-30T06:06:09.378Z,608.00
2023-11-30T06:07:09.336Z,619.00
2023-11-30T06:08:09.300Z,614.00
2023-11-30T06:09:09.389Z,614.00
2023-11-30T06:10:09.355Z,616.00
2023-11-30T06:11:09.326Z,618.00
2023-11-30T06:12:09.362Z,613.00
2023-11-30T06:13:09.364Z,610.00
2023-11-30T06:14:09.322Z,615.00
2023-11-30T06:15:09.460Z,613.00
2023-11-30T06:16:09.392Z,606.00
2023-11-30T06:17:09.411Z,609.00
2023-11-30T06:18:09.396Z,606.00
2023-11-30T06:19:09.368Z,602.00
2023-11-30T06:20:10.682Z,610.00
2023-11-30T06:21:09.351Z,603.00
2023-11-30T06:22:09.348Z,602.00
2023-11-30T06:23:09.363Z,612.00
2023-11-30T06:24:09.362Z,606.00
2023-11-30T06:25:09.417Z,612.00
2023-11-30T06:26:09.366Z,603.00
2023-11-30T06:27:09.386Z,610.00
2023-11-30T06:28:09.909Z,605.00
2023-11-30T06:29:09.360Z,600.00
2023-11-30T06:30:09.420Z,607.00
2023-11-30T06:31:09.385Z,601.00
2023-11-30T06:32:09.366Z,608.00
2023-11-30T06:33:09.474Z,611.00
2023-11-30T06:34:09.354Z,611.00
2023-11-30T06:35:09.374Z,620.00
2023-11-30T06:36:09.408Z,620.00
2023-11-30T06:37:09.351Z,626.00
2023-11-30T06:38:09.447Z,621.00
2023-11-30T06:39:09.353Z,630.00
2023-11-30T06:40:09.435Z,627.00
2023-11-30T06:41:09.436Z,619.00
2023-11-30T06:42:09.414Z,614.00
2023-11-30T06:43:09.361Z,615.00
2023-11-30T06:44:09.462Z,615.00
2023-11-30T06:45:09.410Z,628.00
2023-11-30T06:46:32.981Z,631.00
2023-11-30T06:47:09.619Z,632.00
2023-11-30T06:48:10.016Z,633.00
2023-11-30T06:49:09.687Z,633.00
2023-11-30T06:50:09.680Z,638.00
2023-11-30T06:51:09.734Z,657.00
2023-11-30T06:52:09.693Z,671.00
2023-11-30T06:53:09.921Z,684.00
2023-11-30T06:54:09.796Z,686.00
2023-11-30T06:55:09.856Z,695.00
2023-11-30T06:56:09.883Z,719.00
2023-11-30T06:57:09.946Z,765.00
2023-11-30T06:58:10.415Z,758.00
2023-11-30T06:59:10.133Z,742.00
2023-11-30T07:00:10.228Z,755.00
2023-11-30T07:01:10.226Z,759.00
2023-11-30T07:02:10.297Z,758.00
2023-11-30T07:03:10.480Z,752.00
2023-11-30T07:04:10.571Z,747.00
2023-11-30T07:05:10.497Z,735.00
2023-11-30T07:06:10.674Z,728.00
2023-11-30T07:07:17.268Z,742.00
2023-11-30T07:08:11.620Z,744.00
2023-11-30T07:09:10.620Z,750.00
2023-11-30T07:10:10.566Z,764.00
2023-11-30T07:11:12.428Z,784.00
2023-11-30T07:12:11.235Z,812.00
2023-11-30T07:13:10.621Z,818.00
2023-11-30T07:14:10.576Z,830.00
2023-11-30T07:15:10.596Z,842.00
2023-11-30T07:16:10.583Z,845.00
2023-11-30T07:17:10.588Z,838.00
2023-11-30T07:18:10.756Z,842.00
2023-11-30T07:19:10.626Z,830.00
2023-11-30T07:20:10.570Z,836.00
2023-11-30T07:21:10.631Z,861.00
2023-11-30T07:22:10.578Z,857.00
2023-11-30T07:23:10.567Z,865.00
2023-11-30T07:24:13.132Z,837.00
2023-11-30T07:25:10.584Z,833.00
2023-11-30T07:26:10.594Z,855.00
2023-11-30T07:27:10.864Z,861.00
2023-11-30T07:28:11.466Z,869.00
2023-11-30T07:29:10.585Z,881.00
2023-11-30T07:30:10.743Z,893.00
2023-11-30T07:31:10.622Z,891.00
2023-11-30T07:32:10.607Z,897.00
2023-11-30T07:33:10.674Z,903.00
2023-11-30T07:34:10.606Z,907.00
2023-11-30T07:35:10.605Z,899.00
2023-11-30T07:36:12.640Z,895.00
2023-11-30T07:37:10.603Z,895.00
2023-11-30T07:38:10.686Z,900.00
2023-11-30T07:39:10.600Z,916.00
2023-11-30T07:40:12.401Z,987.00
2023-11-30T07:41:10.599Z,1060.00
2023-11-30T07:42:10.606Z,1058.00
2023-11-30T07:43:10.621Z,1041.00
2023-11-30T07:44:10.592Z,1023.00
2023-11-30T07:45:10.764Z,987.00
2023-11-30T07:46:10.616Z,973.00
2023-11-30T07:47:11.701Z,953.00
2023-11-30T07:48:10.779Z,939.00
2023-11-30T07:49:10.599Z,932.00
2023-11-30T07:50:10.602Z,910.00
2023-11-30T07:51:10.648Z,920.00
2023-11-30T07:52:10.601Z,921.00
2023-11-30T07:53:10.600Z,913.00
2023-11-30T07:54:10.659Z,911.00
2023-11-30T07:55:10.603Z,917.00
2023-11-30T07:56:10.590Z,921.00
2023-11-30T07:57:10.614Z,918.00
2023-11-30T07:58:10.603Z,932.00
2023-11-30T07:59:10.602Z,945.00
2023-11-30T08:00:10.694Z,952.00
2023-11-30T08:01:10.757Z,993.00
2023-11-30T08:02:10.643Z,1014.00
2023-11-30T08:03:10.730Z,1026.00
2023-11-30T08:04:10.852Z,1042.00
2023-11-30T08:05:10.645Z,1046.00
2023-11-30T08:06:10.635Z,1039.00
2023-11-30T08:07:10.619Z,1051.00
2023-11-30T08:08:10.626Z,1041.00
2023-11-30T08:09:10.837Z,1062.00
2023-11-30T08:10:10.647Z,1060.00
2023-11-30T08:11:10.645Z,1069.00
2023-11-30T08:12:10.768Z,1064.00
2023-11-30T08:13:10.610Z,1065.00
2023-11-30T08:14:10.970Z,1059.00
2023-11-30T08:15:10.731Z,1037.00
2023-11-30T08:16:10.619Z,1043.00
2023-11-30T08:17:10.626Z,1047.00
2023-11-30T08:18:10.650Z,1027.00
2023-11-30T08:19:10.696Z,1020.00
2023-11-30T08:20:10.658Z,1020.00
2023-11-30T08:21:10.608Z,1016.00
2023-11-30T08:22:12.369Z,1011.00
2023-11-30T08:23:10.621Z,1012.00
2023-11-30T08:24:10.626Z,1012.00
2023-11-30T08:25:10.615Z,1022.00
2023-11-30T08:26:10.626Z,1003.00
2023-11-30T08:27:10.690Z,1017.00
2023-11-30T08:28:10.601Z,1007.00
2023-11-30T08:29:10.609Z,994.00
2023-11-30T08:30:10.625Z,990.00
2023-11-30T08:31:10.665Z,997.00
2023-11-30T08:32:10.635Z,982.00
2023-11-30T08:33:10.690Z,971.00
2023-11-30T08:34:11.027Z,963.00
2023-11-30T08:35:10.652Z,953.00
2023-11-30T08:36:10.653Z,957.00
2023-11-30T08:37:10.629Z,945.00
2023-11-30T08:38:10.621Z,946.00
2023-11-30T08:39:10.638Z,943.00
2023-11-30T08:40:10.619Z,942.00
2023-11-30T08:41:10.625Z,1003.00
2023-11-30T08:42:10.700Z,1021.00
2023-11-30T08:43:10.640Z,1019.00
2023-11-30T08:44:10.628Z,1011.00
2023-11-30T08:45:10.715Z,1014.00
2023-11-30T08:46:10.648Z,999.00
2023-11-30T08:47:10.622Z,1001.00
2023-11-30T08:48:10.718Z,991.00
2023-11-30T08:49:10.650Z,988.00
2023-11-30T08:50:10.647Z,971.00
2023-11-30T08:51:10.648Z,972.00
2023-11-30T08:52:10.668Z,972.00
2023-11-30T08:53:10.643Z,960.00
2023-11-30T08:54:10.696Z,963.00
2023-11-30T08:55:10.646Z,962.00
2023-11-30T08:56:10.653Z,955.00
2023-11-30T08:57:10.653Z,948.00
2023-11-30T08:58:10.646Z,937.00
2023-11-30T08:59:10.700Z,942.00
2023-11-30T09:00:10.758Z,944.00
2023-11-30T09:01:10.672Z,941.00
2023-11-30T09:02:10.690Z,941.00
2023-11-30T09:03:10.754Z,943.00
2023-11-30T09:04:11.033Z,947.00
2023-11-30T09:05:10.676Z,942.00
2023-11-30T09:06:10.686Z,934.00
2023-11-30T09:07:10.697Z,930.00
2023-11-30T09:08:10.665Z,929.00
2023-11-30T09:09:10.759Z,932.00
2023-11-30T09:10:10.663Z,930.00
2023-11-30T09:11:10.647Z,934.00
2023-11-30T09:12:10.654Z,926.00
2023-11-30T09:13:10.648Z,924.00
2023-11-30T09:14:10.688Z,930.00
2023-11-30T09:15:10.717Z,927.00
2023-11-30T09:16:10.720Z,918.00
2023-11-30T09:17:10.654Z,915.00
2023-11-30T09:18:10.733Z,902.00
2023-11-30T09:19:10.664Z,900.00
2023-11-30T09:20:10.655Z,900.00
2023-11-30T09:21:10.694Z,887.00
2023-11-30T09:22:10.668Z,888.00
2023-11-30T09:23:10.664Z,886.00
2023-11-30T09:24:10.998Z,878.00
2023-11-30T09:25:10.667Z,872.00
2023-11-30T09:26:10.692Z,879.00
2023-11-30T09:27:11.471Z,873.00
2023-11-30T09:28:10.835Z,876.00
2023-11-30T09:29:10.673Z,872.00
2023-11-30T09:30:10.671Z,883.00
2023-11-30T09:31:10.671Z,865.00
2023-11-30T09:32:10.667Z,866.00
2023-11-30T09:33:10.768Z,854.00
2023-11-30T09:34:11.065Z,861.00
2023-11-30T09:35:10.745Z,867.00
2023-11-30T09:36:10.731Z,886.00
2023-11-30T09:37:10.655Z,894.00
2023-11-30T09:38:10.662Z,902.00
2023-11-30T09:39:11.005Z,894.00
2023-11-30T09:40:10.682Z,903.00
2023-11-30T09:41:10.632Z,904.00
2023-11-30T09:42:10.716Z,901.00
2023-11-30T09:43:10.654Z,907.00
2023-11-30T09:44:10.705Z,915.00
2023-11-30T09:45:11.513Z,912.00
2023-11-30T09:46:10.824Z,909.00
2023-11-30T09:47:10.692Z,906.00
2023-11-30T09:48:10.744Z,911.00
2023-11-30T09:49:10.678Z,904.00
2023-11-30T09:50:10.978Z,904.00
2023-11-30T09:51:10.741Z,898.00
2023-11-30T09:52:10.719Z,881.00
2023-11-30T09:53:10.668Z,883.00
2023-11-30T09:54:10.761Z,876.00
2023-11-30T09:55:12.669Z,884.00
2023-11-30T09:56:10.680Z,884.00
2023-11-30T09:57:10.731Z,887.00
2023-11-30T09:58:10.718Z,888.00
2023-11-30T09:59:10.667Z,908.00
2023-11-30T10:00:11.278Z,937.00
2023-11-30T10:01:10.768Z,942.00
2023-11-30T10:02:10.833Z,930.00
2023-11-30T10:03:10.742Z,920.00
2023-11-30T10:04:10.758Z,887.00
2023-11-30T10:05:10.977Z,852.00
2023-11-30T10:06:10.697Z,838.00
2023-11-30T10:07:10.749Z,826.00
2023-11-30T10:08:10.708Z,820.00
2023-11-30T10:09:10.668Z,810.00
2023-11-30T10:10:10.695Z,813.00
2023-11-30T10:11:10.701Z,816.00
2023-11-30T10:12:10.732Z,800.00
2023-11-30T10:13:10.679Z,797.00
2023-11-30T10:14:10.770Z,801.00
2023-11-30T10:15:10.769Z,805.00
2023-11-30T10:16:10.695Z,789.00
2023-11-30T10:17:10.730Z,799.00
2023-11-30T10:18:10.790Z,796.00
2023-11-30T10:19:10.825Z,794.00
2023-11-30T10:20:10.989Z,781.00
2023-11-30T10:21:10.780Z,780.00
2023-11-30T10:22:10.681Z,785.00
2023-11-30T10:23:10.694Z,782.00
2023-11-30T10:24:10.732Z,779.00
2023-11-30T10:25:11.033Z,785.00
2023-11-30T10:26:10.711Z,778.00
2023-11-30T10:27:10.746Z,773.00
2023-11-30T10:28:10.708Z,779.00
2023-11-30T10:29:10.726Z,771.00
2023-11-30T10:30:10.759Z,773.00
2023-11-30T10:31:10.757Z,756.00
2023-11-30T10:32:10.706Z,764.00
2023-11-30T10:33:10.785Z,762.00
2023-11-30T10:34:10.851Z,752.00
2023-11-30T10:35:10.753Z,762.00
2023-11-30T10:36:10.775Z,769.00
2023-11-30T10:37:10.672Z,762.00
2023-11-30T10:38:10.697Z,758.00
2023-11-30T10:39:10.743Z,754.00
2023-11-30T10:40:10.729Z,758.00
2023-11-30T10:41:10.728Z,765.00
2023-11-30T10:42:10.762Z,756.00
2023-11-30T10:43:10.714Z,753.00
2023-11-30T10:44:10.731Z,754.00
2023-11-30T10:45:10.769Z,754.00
2023-11-30T10:46:10.749Z,754.00
2023-11-30T10:47:10.669Z,745.00
2023-11-30T10:48:10.752Z,732.00
2023-11-30T10:49:10.682Z,729.00
2023-11-30T10:50:10.979Z,719.00
2023-11-30T10:51:10.706Z,704.00
2023-11-30T10:52:10.713Z,697.00
2023-11-30T10:53:10.673Z,705.00
2023-11-30T10:54:10.763Z,698.00
2023-11-30T10:55:11.038Z,689.00
2023-11-30T10:56:10.862Z,693.00
2023-11-30T10:57:10.982Z,696.00
2023-11-30T10:58:10.976Z,692.00
2023-11-30T10:59:11.063Z,694.00
2023-11-30T11:00:11.152Z,704.00
2023-11-30T11:01:11.226Z,699.00
2023-11-30T11:02:11.411Z,694.00
2023-11-30T11:03:11.446Z,709.00
2023-11-30T11:04:11.503Z,700.00
2023-11-30T11:05:11.504Z,705.00
2023-11-30T11:06:11.572Z,700.00
2023-11-30T11:07:11.624Z,707.00
2023-11-30T11:08:11.667Z,709.00
2023-11-30T11:09:11.776Z,708.00
2023-11-30T11:10:11.989Z,712.00
2023-11-30T11:11:11.850Z,727.00
2023-11-30T11:12:11.955Z,712.00
2023-11-30T11:13:11.928Z,727.00
2023-11-30T11:14:11.938Z,725.00
2023-11-30T11:15:15.806Z,738.00
2023-11-30T11:16:12.149Z,738.00
2023-11-30T11:17:11.957Z,740.00
2023-11-30T11:18:12.081Z,745.00
2023-11-30T11:19:12.002Z,764.00
2023-11-30T11:20:11.987Z,778.00
2023-11-30T11:21:12.045Z,778.00
2023-11-30T11:22:12.001Z,796.00
2023-11-30T11:23:11.979Z,815.00
2023-11-30T11:24:12.061Z,823.00
2023-11-30T11:25:12.021Z,823.00
2023-11-30T11:26:12.041Z,829.00
2023-11-30T11:27:12.063Z,834.00
2023-11-30T11:28:12.160Z,845.00
2023-11-30T11:29:12.225Z,842.00
2023-11-30T11:30:12.309Z,850.00
2023-11-30T11:31:13.303Z,849.00
2023-11-30T11:32:12.291Z,852.00
2023-11-30T11:33:12.410Z,857.00
2023-11-30T11:34:12.315Z,860.00
2023-11-30T11:35:12.519Z,860.00
2023-11-30T11:36:13.430Z,851.00
2023-11-30T11:37:12.584Z,851.00
2023-11-30T11:38:12.292Z,850.00
2023-11-30T11:39:12.257Z,850.00
2023-11-30T11:40:12.514Z,848.00
2023-11-30T11:41:12.378Z,837.00
2023-11-30T11:42:12.413Z,846.00
2023-11-30T11:43:12.418Z,837.00
2023-11-30T11:44:12.458Z,825.00
2023-11-30T11:45:12.599Z,801.00
2023-11-30T11:46:12.541Z,790.00
2023-11-30T11:47:12.449Z,765.00
2023-11-30T11:48:12.590Z,759.00
2023-11-30T11:49:12.515Z,762.00
2023-11-30T11:50:12.534Z,765.00
2023-11-30T11:51:12.554Z,768.00
2023-11-30T11:52:12.502Z,764.00
2023-11-30T11:53:12.482Z,758.00
2023-11-30T11:54:12.557Z,757.00
2023-11-30T11:55:12.592Z,756.00
2023-11-30T11:56:12.653Z,762.00
2023-11-30T11:57:12.678Z,787.00
2023-11-30T11:58:12.732Z,785.00
2023-11-30T11:59:12.809Z,795.00
2023-11-30T12:00:12.936Z,799.00
2023-11-30T12:01:12.977Z,806.00
2023-11-30T12:02:13.013Z,800.00
2023-11-30T12:03:13.097Z,806.00
2023-11-30T12:04:13.203Z,798.00
2023-11-30T12:05:13.215Z,806.00
2023-11-30T12:06:13.336Z,806.00
2023-11-30T12:07:13.333Z,807.00
2023-11-30T12:08:14.025Z,817.00
2023-11-30T12:09:14.316Z,814.00
2023-11-30T12:10:13.564Z,821.00
2023-11-30T12:11:13.596Z,824.00
2023-11-30T12:12:13.728Z,829.00
2023-11-30T12:13:13.839Z,820.00
2023-11-30T12:14:13.855Z,813.00
2023-11-30T12:15:13.910Z,808.00
2023-11-30T12:16:14.062Z,820.00
2023-11-30T12:17:14.129Z,828.00
2023-11-30T12:18:14.246Z,842.00
2023-11-30T12:19:15.099Z,868.00
2023-11-30T12:20:14.663Z,879.00
2023-11-30T12:21:14.232Z,890.00
2023-11-30T12:22:14.264Z,897.00
2023-11-30T12:23:14.482Z,888.00
2023-11-30T12:24:14.371Z,858.00
2023-11-30T12:25:14.380Z,814.00
2023-11-30T12:26:14.405Z,781.00
2023-11-30T12:27:14.394Z,746.00
2023-11-30T12:28:14.402Z,720.00